Time;durP1;ratioP1;P1;durP2;ratioP2;P2;SDS_P1;SDS_P2;PMS_P1;PMS_P2;Temp;Humidity;BMP_temperature;BMP_pressure;BME280_temperature;BME280_humidity;BME280_pressure;Samples;Min_cycle;Max_cycle;Signal;HPM_P1;HPM_P2
2024/04/17 00:01:32;;;;;;;5.38;3.28;;;26.90;99.90;;;;;;5311075;26;19998;-49
2024/04/17 00:03:57;;;;;;;7.78;2.97;;;26.90;99.90;;;;;;5310427;26;20016;-50
2024/04/17 00:06:23;;;;;;;4.85;3.22;;;26.90;99.90;;;;;;5310193;26;19998;-51
2024/04/17 00:08:50;;;;;;;5.68;2.88;;;26.90;99.90;;;;;;5310545;26;20002;-51
2024/04/17 00:11:16;;;;;;;7.43;2.80;;;26.90;99.90;;;;;;5310550;26;20070;-51
2024/04/17 00:13:41;;;;;;;4.38;2.97;;;26.90;99.90;;;;;;5310308;26;20796;-50
2024/04/17 00:16:07;;;;;;;6.25;3.22;;;26.90;99.90;;;;;;5310483;26;20097;-50
2024/04/17 00:18:33;;;;;;;5.50;3.20;;;26.90;99.90;;;;;;5310427;26;20077;-50
2024/04/17 00:20:59;;;;;;;12.00;3.45;;;26.90;99.90;;;;;;5310546;26;19998;-50
2024/04/17 00:23:25;;;;;;;5.90;2.92;;;26.90;99.90;;;;;;5310796;26;20008;-50
2024/04/17 00:25:51;;;;;;;7.50;3.05;;;26.90;99.90;;;;;;5313675;26;20012;-49
2024/04/17 00:28:17;;;;;;;6.50;3.63;;;26.90;99.90;;;;;;5313711;26;20025;-49
2024/04/17 00:30:45;;;;;;;6.70;3.13;;;26.90;99.90;;;;;;5313699;26;20458;-50
2024/04/17 00:33:11;;;;;;;5.30;2.90;;;26.90;99.90;;;;;;5314010;26;20002;-50
2024/04/17 00:35:37;;;;;;;5.70;3.20;;;26.90;99.90;;;;;;5313701;26;20008;-50
2024/04/17 00:38:03;;;;;;;5.00;2.70;;;26.90;99.90;;;;;;5313546;26;20449;-50
2024/04/17 00:40:32;;;;;;;6.10;3.03;;;26.90;99.90;;;;;;5313473;27;19994;-50
2024/04/17 00:43:00;;;;;;;4.38;2.80;;;26.90;99.90;;;;;;5313564;26;20008;-50
2024/04/17 00:45:47;;;;;;;5.03;2.80;;;26.90;99.90;;;;;;5313480;26;20446;-50
2024/04/17 00:48:14;;;;;;;7.78;2.90;;;26.90;99.90;;;;;;5313617;26;20009;-50
2024/04/17 00:50:48;;;;;;;6.57;3.35;;;26.90;99.90;;;;;;5313749;26;19997;-50
2024/04/17 00:53:17;;;;;;;5.45;3.25;;;26.90;99.90;;;;;;5313477;26;20008;-50
2024/04/17 00:55:45;;;;;;;8.40;3.08;;;26.90;99.90;;;;;;5313730;26;20001;-50
2024/04/17 00:58:12;;;;;;;6.43;2.75;;;26.90;99.90;;;;;;5313590;26;20075;-50
2024/04/17 01:00:38;;;;;;;5.20;2.65;;;26.90;99.90;;;;;;5341927;21;20019;-55
2024/04/17 01:03:04;;;;;;;5.93;3.35;;;26.90;99.90;;;;;;5382965;26;20471;-55
2024/04/17 01:05:31;;;;;;;7.88;3.10;;;26.90;99.90;;;;;;5382931;26;20015;-55
2024/04/17 01:07:57;;;;;;;4.90;2.92;;;26.90;99.90;;;;;;5383121;26;20000;-55
2024/04/17 01:10:23;;;;;;;6.22;3.17;;;26.90;99.90;;;;;;5381039;26;20003;-54
2024/04/17 01:12:49;;;;;;;8.68;3.53;;;26.90;99.90;;;;;;5383199;26;19992;-55
2024/04/17 01:15:15;;;;;;;9.20;2.75;;;26.90;99.90;;;;;;5384013;26;20447;-56
2024/04/17 01:17:41;;;;;;;5.63;2.75;;;26.90;99.90;;;;;;5382975;26;20313;-56
2024/04/17 01:20:08;;;;;;;6.63;2.78;;;26.80;99.90;;;;;;5382446;26;20082;-55
2024/04/17 01:22:34;;;;;;;4.72;3.15;;;26.80;99.90;;;;;;5382288;26;20402;-55
2024/04/17 01:25:00;;;;;;;7.32;2.83;;;26.80;99.90;;;;;;5382569;26;20000;-56
2024/04/17 01:27:26;;;;;;;5.80;2.97;;;26.80;99.90;;;;;;5382803;26;20003;-55
2024/04/17 01:29:51;;;;;;;9.27;3.08;;;26.80;99.90;;;;;;5380245;26;20004;-55
2024/04/17 01:32:17;;;;;;;7.38;3.00;;;26.80;99.90;;;;;;5380585;26;20543;-55
2024/04/17 01:34:43;;;;;;;5.53;2.50;;;26.80;99.90;;;;;;5381859;26;20007;-54
2024/04/17 01:37:09;;;;;;;6.32;3.05;;;26.90;99.90;;;;;;5381331;26;20437;-54
2024/04/17 01:39:35;;;;;;;7.45;3.05;;;26.90;99.90;;;;;;5380336;26;20007;-55
2024/04/17 01:42:01;;;;;;;8.43;3.10;;;26.80;99.90;;;;;;5381892;26;20416;-55
2024/04/17 01:44:27;;;;;;;10.77;3.13;;;26.80;99.90;;;;;;5382572;26;20069;-54
2024/04/17 01:46:53;;;;;;;7.53;3.03;;;26.80;99.90;;;;;;5380349;26;20000;-55
2024/04/17 01:49:18;;;;;;;7.82;2.75;;;26.80;99.90;;;;;;5381815;26;20008;-54
2024/04/17 01:51:44;;;;;;;5.32;2.80;;;26.80;99.90;;;;;;5381834;26;20066;-55
2024/04/17 01:54:10;;;;;;;6.68;3.00;;;26.90;99.90;;;;;;5381832;26;19996;-55
2024/04/17 01:56:36;;;;;;;6.20;3.67;;;26.80;99.90;;;;;;5381861;26;20020;-54
2024/04/17 01:59:01;;;;;;;6.30;3.25;;;26.80;99.90;;;;;;5381996;26;20007;-54
2024/04/17 02:01:27;;;;;;;7.90;2.80;;;26.90;99.90;;;;;;5411459;21;20018;-53
2024/04/17 02:03:53;;;;;;;6.40;2.95;;;26.80;99.90;;;;;;5417354;26;19996;-53
2024/04/17 02:06:19;;;;;;;4.88;2.35;;;26.80;99.90;;;;;;5417084;26;20069;-54
2024/04/17 02:08:45;;;;;;;3.15;2.38;;;26.80;99.90;;;;;;5417190;26;20015;-54
2024/04/17 02:11:11;;;;;;;8.13;3.25;;;26.80;99.90;;;;;;5417017;26;20317;-54
2024/04/17 02:13:36;;;;;;;5.85;2.50;;;26.80;99.90;;;;;;5417239;26;20006;-53
2024/04/17 02:16:04;;;;;;;10.52;2.95;;;26.80;99.90;;;;;;5417218;26;20008;-53
2024/04/17 02:18:30;;;;;;;;;;;26.80;99.90;;;;;;5417763;26;19999;-54
2024/04/17 02:20:55;;;;;;;4.20;2.78;;;26.80;99.90;;;;;;5416970;26;19932;-54
2024/04/17 02:23:22;;;;;;;4.70;3.08;;;26.80;99.90;;;;;;5416921;26;19999;-51
2024/04/17 02:25:48;;;;;;;11.88;3.17;;;26.80;99.90;;;;;;5416817;26;19992;-53
2024/04/17 02:28:13;;;;;;;6.43;3.50;;;26.80;99.90;;;;;;5417056;26;19991;-52
2024/04/17 02:30:39;;;;;;;6.80;2.63;;;26.80;99.90;;;;;;5414816;26;19991;-52
2024/04/17 02:33:05;;;;;;;5.68;2.78;;;26.80;99.90;;;;;;5417023;26;19992;-52
2024/04/17 02:35:31;;;;;;;5.90;2.67;;;26.80;99.90;;;;;;5416932;26;19991;-53
2024/04/17 02:37:56;;;;;;;6.25;2.67;;;26.80;99.90;;;;;;5416759;26;19994;-53
2024/04/17 02:40:22;;;;;;;4.80;3.38;;;26.80;99.90;;;;;;5416973;26;20002;-53
2024/04/17 02:42:48;;;;;;;4.28;2.83;;;26.80;99.90;;;;;;5416763;26;19992;-53
2024/04/17 02:45:14;;;;;;;7.20;2.97;;;26.80;99.90;;;;;;5416752;26;20068;-53
2024/04/17 02:47:39;;;;;;;4.93;2.42;;;26.80;99.90;;;;;;5415090;26;20003;-52
2024/04/17 02:50:05;;;;;;;7.15;2.92;;;26.80;99.90;;;;;;5416414;26;19991;-53
2024/04/17 02:52:31;;;;;;;5.55;2.95;;;26.80;99.90;;;;;;5416846;26;20435;-53
2024/04/17 02:54:58;;;;;;;6.50;2.80;;;26.80;99.90;;;;;;5416599;26;19992;-53
2024/04/17 02:57:24;;;;;;;5.55;2.53;;;26.80;99.90;;;;;;5414765;26;20076;-53
2024/04/17 02:59:50;;;;;;;7.28;2.60;;;26.80;99.90;;;;;;5416323;26;20072;-53
2024/04/17 03:02:16;;;;;;;4.88;2.35;;;26.80;99.90;;;;;;5404558;21;20354;-54
2024/04/17 03:04:42;;;;;;;3.83;2.50;;;26.70;99.90;;;;;;5380680;26;20069;-53
2024/04/17 03:07:08;;;;;;;5.28;3.10;;;26.80;99.90;;;;;;5380563;26;20065;-53
2024/04/17 03:09:33;;;;;;;7.90;2.65;;;26.80;99.90;;;;;;5379173;26;20007;-53
2024/04/17 03:11:59;;;;;;;5.35;2.78;;;26.80;99.90;;;;;;5380872;26;20007;-53
2024/04/17 03:14:25;;;;;;;5.65;2.28;;;26.80;99.90;;;;;;5379172;26;20004;-53
2024/04/17 03:16:51;;;;;;;6.97;2.92;;;26.70;99.90;;;;;;5380705;26;20365;-53
2024/04/17 03:19:16;;;;;;;6.95;2.05;;;26.70;99.90;;;;;;5380553;26;20086;-54
2024/04/17 03:21:42;;;;;;;6.00;2.47;;;26.70;99.90;;;;;;5380510;26;19996;-54
2024/04/17 03:24:08;;;;;;;7.07;2.47;;;26.70;99.90;;;;;;5378766;26;20082;-54
2024/04/17 03:26:34;;;;;;;7.72;2.88;;;26.70;99.90;;;;;;5380849;26;20012;-54
2024/04/17 03:28:59;;;;;;;7.28;3.22;;;26.70;99.90;;;;;;5380507;26;20036;-55
2024/04/17 03:31:25;;;;;;;4.95;2.97;;;26.70;99.90;;;;;;5380390;26;19996;-54
2024/04/17 03:33:51;;;;;;;7.20;3.42;;;26.70;99.90;;;;;;5380186;26;20000;-55
2024/04/17 03:36:17;;;;;;;6.63;3.33;;;26.70;99.90;;;;;;5380442;26;19996;-54
2024/04/17 03:38:42;;;;;;;6.60;2.95;;;26.70;99.90;;;;;;5380076;26;20340;-53
2024/04/17 03:41:08;;;;;;;9.45;4.20;;;26.70;99.90;;;;;;5380102;26;20004;-53
2024/04/17 03:43:34;;;;;;;7.90;4.18;;;26.70;99.90;;;;;;5380278;26;19997;-53
2024/04/17 03:46:03;;;;;;;8.10;3.75;;;26.70;99.90;;;;;;5380269;26;20064;-53
2024/04/17 03:48:29;;;;;;;8.38;4.10;;;26.70;99.90;;;;;;5380039;26;20000;-54
2024/04/17 03:50:54;;;;;;;9.48;5.30;;;26.70;99.90;;;;;;5379940;26;20001;-53
2024/04/17 03:53:21;;;;;;;8.45;4.97;;;26.70;99.90;;;;;;5380140;26;20000;-53
2024/04/17 03:55:46;;;;;;;11.07;5.78;;;26.70;99.90;;;;;;5379903;26;20415;-55
2024/04/17 03:58:12;;;;;;;9.55;5.45;;;26.70;99.90;;;;;;5378443;26;20000;-54
2024/04/17 04:00:39;;;;;;;12.70;6.30;;;26.70;99.90;;;;;;5382617;26;20074;-54
2024/04/17 04:03:04;;;;;;;9.97;6.40;;;26.70;99.90;;;;;;5383585;26;20011;-53
2024/04/17 04:05:30;;;;;;;13.80;7.45;;;26.70;99.90;;;;;;5383392;26;20632;-53
2024/04/17 04:07:56;;;;;;;13.93;7.65;;;26.70;99.90;;;;;;5383607;26;20012;-53
2024/04/17 04:10:22;;;;;;;10.65;6.55;;;26.70;99.90;;;;;;5383030;26;20000;-53
2024/04/17 04:12:47;;;;;;;10.82;7.43;;;26.70;99.90;;;;;;5383327;26;20008;-53
2024/04/17 04:15:13;;;;;;;14.45;8.85;;;26.60;99.90;;;;;;5383166;26;20004;-53
2024/04/17 04:17:39;;;;;;;15.82;8.90;;;26.60;99.90;;;;;;5383243;26;20004;-54
2024/04/17 04:20:06;;;;;;;13.20;8.20;;;26.60;99.90;;;;;;5382138;26;20011;-54
2024/04/17 04:22:31;;;;;;;17.53;10.00;;;26.60;99.90;;;;;;5383102;26;20028;-53
2024/04/17 04:24:57;;;;;;;12.75;8.25;;;26.70;99.90;;;;;;5383144;26;20441;-54
2024/04/17 04:27:23;;;;;;;15.63;8.40;;;26.60;99.90;;;;;;5383058;26;20007;-54
2024/04/17 04:29:49;;;;;;;15.60;9.30;;;26.60;99.90;;;;;;5382688;26;20011;-55
2024/04/17 04:32:15;;;;;;;12.95;9.05;;;26.60;99.90;;;;;;5383108;26;20008;-54
2024/04/17 04:34:40;;;;;;;18.23;9.27;;;26.60;99.90;;;;;;5381253;26;20011;-54
2024/04/17 04:37:06;;;;;;;17.15;9.73;;;26.60;99.90;;;;;;5383180;26;20011;-54
2024/04/17 04:39:32;;;;;;;13.88;8.35;;;26.60;99.90;;;;;;5382694;26;20441;-55
2024/04/17 04:41:58;;;;;;;15.95;9.35;;;26.60;99.90;;;;;;5382952;26;20440;-54
2024/04/17 04:44:23;;;;;;;15.32;9.35;;;26.60;99.90;;;;;;5382999;26;20008;-53
2024/04/17 04:46:51;;;;;;;15.27;9.88;;;26.60;99.90;;;;;;5382770;26;20440;-54
2024/04/17 04:49:17;;;;;;;19.80;10.60;;;26.60;99.90;;;;;;5382760;26;19996;-54
2024/04/17 04:51:43;;;;;;;14.98;8.75;;;26.60;99.90;;;;;;5380918;26;20383;-56
2024/04/17 04:54:08;;;;;;;13.80;8.20;;;26.60;99.90;;;;;;5383155;26;20000;-54
2024/04/17 04:56:34;;;;;;;15.30;9.52;;;26.60;99.90;;;;;;5382719;26;19996;-54
2024/04/17 04:59:00;;;;;;;13.48;9.15;;;26.60;99.90;;;;;;5382629;26;20069;-54
2024/04/17 05:01:26;;;;;;;12.45;7.90;;;26.60;99.90;;;;;;5380885;26;20432;-54
2024/04/17 05:03:51;;;;;;;13.95;8.48;;;26.60;99.90;;;;;;5379098;26;20317;-54
2024/04/17 05:06:17;;;;;;;14.63;8.98;;;26.60;99.90;;;;;;5379198;26;20007;-54
2024/04/17 05:08:43;;;;;;;16.73;9.45;;;26.60;99.90;;;;;;5379157;26;20025;-53
2024/04/17 05:11:11;;;;;;;17.27;8.93;;;26.50;99.90;;;;;;5377966;26;20008;-54
2024/04/17 05:13:37;;;;;;;12.02;7.93;;;26.60;99.90;;;;;;5378911;26;19996;-54
2024/04/17 05:16:03;;;;;;;12.98;8.10;;;26.60;99.90;;;;;;5378813;26;20003;-54
2024/04/17 05:18:30;;;;;;;15.38;8.30;;;26.60;99.90;;;;;;5379889;26;20441;-53
2024/04/17 05:20:56;;;;;;;14.20;7.53;;;26.60;99.90;;;;;;5382272;26;19992;-53
2024/04/17 05:23:21;;;;;;;11.30;7.60;;;26.50;99.90;;;;;;5382284;26;20003;-53
2024/04/17 05:25:47;;;;;;;12.82;7.13;;;26.50;99.90;;;;;;5382341;26;19996;-55
2024/04/17 05:28:13;;;;;;;13.32;7.25;;;26.50;99.90;;;;;;5382055;26;20006;-54
2024/04/17 05:30:39;;;;;;;11.23;6.93;;;26.50;99.90;;;;;;5382209;26;19996;-55
2024/04/17 05:33:05;;;;;;;12.73;7.60;;;26.50;99.90;;;;;;5382170;26;20000;-55
2024/04/17 05:35:31;;;;;;;12.50;6.00;;;26.50;99.90;;;;;;5381981;26;19996;-56
2024/04/17 05:37:57;;;;;;;11.45;6.65;;;26.50;99.90;;;;;;5382034;26;20440;-54
2024/04/17 05:40:23;;;;;;;14.43;6.80;;;26.50;99.90;;;;;;5380358;26;20441;-54
2024/04/17 05:42:48;;;;;;;13.60;7.03;;;26.50;99.90;;;;;;5380299;26;20479;-55
2024/04/17 05:45:14;;;;;;;11.70;6.18;;;26.50;99.90;;;;;;5381864;26;19992;-54
2024/04/17 05:47:40;;;;;;;11.35;5.95;;;26.50;99.90;;;;;;5382006;26;19996;-55
2024/04/17 05:50:06;;;;;;;12.82;5.78;;;26.50;99.90;;;;;;5381382;26;19993;-55
2024/04/17 05:52:32;;;;;;;10.68;5.88;;;26.50;99.90;;;;;;5381665;26;19992;-55
2024/04/17 05:54:58;;;;;;;12.27;5.22;;;26.50;99.90;;;;;;5381606;26;19996;-54
2024/04/17 05:57:23;;;;;;;15.45;5.60;;;26.50;99.90;;;;;;5381831;26;20073;-54
2024/04/17 05:59:49;;;;;;;11.40;5.85;;;26.50;99.90;;;;;;5381544;26;20003;-54
2024/04/17 06:02:15;;;;;;;10.57;6.00;;;26.50;99.90;;;;;;5381820;26;19996;-54
2024/04/17 06:04:41;;;;;;;9.80;5.85;;;26.50;99.90;;;;;;5381886;26;20428;-54
2024/04/17 06:07:06;;;;;;;11.13;6.25;;;26.50;99.90;;;;;;5381774;26;19993;-54
2024/04/17 06:09:32;;;;;;;11.80;5.63;;;26.40;99.90;;;;;;5381698;26;20000;-55
2024/04/17 06:11:58;;;;;;;11.43;5.38;;;26.50;99.90;;;;;;5381650;26;19996;-55
2024/04/17 06:14:23;;;;;;;10.02;4.90;;;26.50;99.90;;;;;;5381326;26;19996;-55
2024/04/17 06:16:49;;;;;;;11.43;5.88;;;26.40;99.90;;;;;;5381474;26;20069;-56
2024/04/17 06:19:15;;;;;;;8.48;4.50;;;26.40;99.90;;;;;;5381867;26;19996;-55
2024/04/17 06:21:41;;;;;;;12.70;5.25;;;26.40;99.90;;;;;;5381354;26;20007;-55
2024/04/17 06:24:07;;;;;;;10.48;4.95;;;26.40;99.90;;;;;;5381662;26;19992;-55
2024/04/17 06:26:32;;;;;;;13.00;6.50;;;26.40;99.90;;;;;;5381480;26;19996;-55
2024/04/17 06:28:58;;;;;;;11.18;5.28;;;26.40;99.90;;;;;;5381104;26;20007;-54
2024/04/17 06:31:25;;;;;;;10.65;5.40;;;26.40;99.90;;;;;;5381622;26;19996;-54
2024/04/17 06:33:51;;;;;;;8.98;5.22;;;26.40;99.90;;;;;;5381234;26;20007;-55
2024/04/17 06:36:17;;;;;;;16.10;5.07;;;26.40;99.90;;;;;;5381512;26;20382;-56
2024/04/17 06:38:44;;;;;;;10.98;5.30;;;26.40;99.90;;;;;;5380053;26;20000;-55
2024/04/17 06:41:10;;;;;;;9.48;4.55;;;26.40;99.90;;;;;;5381141;26;20006;-56
2024/04/17 06:43:37;;;;;;;13.55;4.78;;;26.40;99.90;;;;;;5381249;26;19992;-53
2024/04/17 06:46:03;;;;;;;8.55;4.63;;;26.40;99.90;;;;;;5381075;26;20069;-53
2024/04/17 06:48:28;;;;;;;7.80;4.50;;;26.40;99.90;;;;;;5381055;26;20004;-53
2024/04/17 06:50:54;;;;;;;10.93;4.65;;;26.40;99.90;;;;;;5380923;26;20026;-53
2024/04/17 06:53:20;;;;;;;11.52;4.57;;;26.40;99.90;;;;;;5380968;26;19993;-52
2024/04/17 06:55:46;;;;;;;14.32;5.32;;;26.40;99.90;;;;;;5381341;26;20004;-53
2024/04/17 06:58:12;;;;;;;8.93;4.78;;;26.40;99.90;;;;;;5380714;26;20066;-53
2024/04/17 07:00:38;;;;;;;8.38;4.13;;;26.40;99.90;;;;;;5349890;26;20006;-52
2024/04/17 07:03:04;;;;;;;11.88;4.80;;;26.40;99.90;;;;;;5380969;26;20007;-53
2024/04/17 07:05:30;;;;;;;10.27;4.22;;;26.40;99.90;;;;;;5378853;26;19996;-53
2024/04/17 07:07:56;;;;;;;11.23;4.35;;;26.40;99.90;;;;;;5380785;26;20093;-53
2024/04/17 07:10:22;;;;;;;9.82;4.07;;;26.40;99.90;;;;;;5380884;26;20003;-54
2024/04/17 07:12:49;;;;;;;7.78;4.57;;;26.40;99.90;;;;;;5380713;26;20034;-54
2024/04/17 07:15:14;;;;;;;9.38;4.68;;;26.40;99.90;;;;;;5381108;26;19996;-53
2024/04/17 07:17:40;;;;;;;9.80;4.43;;;26.40;99.90;;;;;;5380517;26;19996;-53
2024/04/17 07:20:07;;;;;;;9.40;3.45;;;26.40;99.90;;;;;;5380875;26;20007;-53
2024/04/17 07:22:33;;;;;;;11.10;4.53;;;26.40;99.90;;;;;;5380598;26;20522;-53
2024/04/17 07:24:58;;;;;;;9.98;3.90;;;26.40;99.90;;;;;;5380519;26;20028;-54
2024/04/17 07:27:24;;;;;;;10.73;3.67;;;26.40;99.90;;;;;;5380519;26;20456;-53
2024/04/17 07:29:50;;;;;;;8.65;4.00;;;26.40;99.90;;;;;;5380274;26;19996;-54
2024/04/17 07:32:16;;;;;;;11.10;4.57;;;26.40;99.90;;;;;;5381080;26;20000;-53
2024/04/17 07:34:41;;;;;;;13.18;4.00;;;26.40;99.90;;;;;;5379664;26;20409;-54
2024/04/17 07:37:08;;;;;;;8.40;4.47;;;26.40;99.90;;;;;;5380467;26;20000;-54
2024/04/17 07:39:36;;;;;;;11.85;4.65;;;26.40;99.90;;;;;;5380376;26;20011;-54
2024/04/17 07:42:02;;;;;;;8.05;4.13;;;26.40;99.90;;;;;;5380183;26;19996;-54
2024/04/17 07:44:29;;;;;;;9.48;4.20;;;26.40;99.90;;;;;;5380171;26;19992;-54
2024/04/17 07:46:55;;;;;;;9.98;4.72;;;26.40;99.90;;;;;;5380128;26;20028;-54
2024/04/17 07:49:20;;;;;;;10.23;4.32;;;26.40;99.90;;;;;;5380001;26;20007;-54
2024/04/17 07:51:46;;;;;;;9.00;4.53;;;26.40;99.90;;;;;;5380282;26;20010;-55
2024/04/17 07:54:12;;;;;;;8.18;4.20;;;26.40;99.90;;;;;;5379962;26;20042;-54
2024/04/17 07:56:38;;;;;;;5.75;4.18;;;26.40;99.90;;;;;;5379773;26;19992;-54
2024/04/17 07:59:03;;;;;;;6.80;3.20;;;26.40;99.90;;;;;;5379997;26;19992;-55
2024/04/17 08:01:29;;;;;;;9.20;4.32;;;26.40;99.90;;;;;;5379650;26;20072;-54
2024/04/17 08:03:55;;;;;;;7.43;4.28;;;26.40;99.90;;;;;;5379782;26;20443;-54
2024/04/17 08:06:21;;;;;;;9.40;3.90;;;26.40;99.90;;;;;;5380175;26;19996;-53
2024/04/17 08:08:47;;;;;;;7.25;3.38;;;26.40;99.90;;;;;;5380044;26;20069;-52
2024/04/17 08:11:14;;;;;;;8.70;3.45;;;26.50;99.90;;;;;;5379564;26;19996;-53
2024/04/17 08:13:40;;;;;;;7.45;4.05;;;26.40;99.90;;;;;;5377801;26;19996;-53
2024/04/17 08:16:06;;;;;;;6.22;3.28;;;26.50;99.90;;;;;;5379568;26;19996;-53
2024/04/17 08:18:31;;;;;;;7.70;3.60;;;26.40;99.90;;;;;;5379803;26;20003;-53
2024/04/17 08:20:58;;;;;;;5.47;3.78;;;26.50;99.90;;;;;;5379824;26;19996;-54
2024/04/17 08:23:24;;;;;;;7.72;3.33;;;26.40;99.90;;;;;;5379873;26;20000;-54
2024/04/17 08:25:50;;;;;;;11.65;3.88;;;26.40;99.90;;;;;;5379870;26;20065;-53
2024/04/17 08:28:17;;;;;;;6.70;4.00;;;26.40;99.90;;;;;;5377535;26;20008;-54
2024/04/17 08:30:43;;;;;;;10.40;4.10;;;26.40;99.90;;;;;;5379413;26;20476;-54
2024/04/17 08:33:09;;;;;;;6.57;3.63;;;26.50;99.90;;;;;;5379245;26;20016;-53
2024/04/17 08:35:38;;;;;;;6.35;3.40;;;26.40;99.90;;;;;;5379446;26;20324;-54
2024/04/17 08:38:04;;;;;;;6.45;3.35;;;26.50;99.90;;;;;;5379355;26;20004;-54
2024/04/17 08:40:30;;;;;;;9.77;3.83;;;26.50;99.90;;;;;;5379126;26;20000;-56
2024/04/17 08:43:02;;;;;;;6.60;3.70;;;26.50;99.90;;;;;;5379749;26;19996;-54
2024/04/17 08:45:33;;;;;;;6.80;3.20;;;26.50;99.90;;;;;;5379743;26;20028;-54
2024/04/17 08:48:02;;;;;;;5.03;3.20;;;26.50;99.90;;;;;;5383109;26;20004;-55
2024/04/17 08:50:31;;;;;;;8.00;3.47;;;26.50;99.90;;;;;;5383446;26;20019;-53
2024/04/17 08:53:05;;;;;;;5.03;3.47;;;26.50;99.90;;;;;;5382682;26;20000;-53
2024/04/17 08:55:32;;;;;;;4.78;3.85;;;26.50;99.90;;;;;;5382921;26;20020;-53
2024/04/17 08:57:59;;;;;;;6.22;3.65;;;26.50;99.90;;;;;;5381164;26;20364;-54
2024/04/17 09:00:26;;;;;;;5.15;2.92;;;26.50;99.90;;;;;;5382701;26;19996;-53
2024/04/17 09:02:58;;;;;;;5.72;3.22;;;26.50;99.90;;;;;;5382815;26;20008;-53
2024/04/17 09:05:29;;;;;;;5.32;3.30;;;26.50;99.90;;;;;;5382739;26;20466;-53
2024/04/17 09:07:58;;;;;;;7.63;3.85;;;26.50;99.90;;;;;;5382494;26;20070;-54
2024/04/17 09:10:25;;;;;;;5.32;3.58;;;26.50;99.90;;;;;;5382712;26;20065;-54
2024/04/17 09:12:51;;;;;;;4.57;3.20;;;26.50;99.90;;;;;;5382735;26;20353;-53
2024/04/17 09:15:18;;;;;;;6.47;3.60;;;26.50;99.90;;;;;;5382622;26;20044;-55
2024/04/17 09:17:45;;;;;;;6.55;3.80;;;26.50;99.90;;;;;;5382366;26;20011;-55
2024/04/17 09:20:12;;;;;;;6.15;3.75;;;26.50;99.90;;;;;;5382307;26;20039;-54
2024/04/17 09:22:39;;;;;;;6.07;3.25;;;26.50;99.90;;;;;;5382492;26;20000;-54
2024/04/17 09:25:15;;;;;;;6.97;3.47;;;26.50;99.90;;;;;;5382177;26;20016;-54
2024/04/17 09:27:41;;;;;;;7.07;3.30;;;26.50;99.90;;;;;;5382462;26;20028;-54
2024/04/17 09:30:07;;;;;;;5.38;3.17;;;26.50;99.90;;;;;;5382345;26;20317;-55
2024/04/17 09:32:33;;;;;;;3.95;2.90;;;26.50;99.90;;;;;;5382404;26;19997;-55
2024/04/17 09:35:00;;;;;;;6.18;3.33;;;26.60;99.90;;;;;;5382268;26;20420;-55
2024/04/17 09:37:26;;;;;;;6.47;2.90;;;26.60;99.90;;;;;;5382318;26;20010;-55
2024/04/17 09:40:05;;;;;;;5.95;3.22;;;26.60;99.90;;;;;;5382069;26;19997;-55
2024/04/17 09:42:33;;;;;;;5.68;3.10;;;26.60;99.90;;;;;;5381930;26;20000;-54
2024/04/17 09:45:00;;;;;;;6.40;3.28;;;26.60;99.90;;;;;;5382047;26;19996;-53
2024/04/17 09:47:28;;;;;;;6.47;3.75;;;26.60;99.90;;;;;;5382389;26;20007;-55
2024/04/17 09:49:58;;;;;;;5.63;3.15;;;26.60;99.90;;;;;;5380406;26;20000;-53
2024/04/17 09:52:29;;;;;;;5.65;3.03;;;26.60;99.90;;;;;;5382092;26;20000;-54
2024/04/17 09:54:56;;;;;;;4.85;2.92;;;26.60;99.90;;;;;;5382010;26;20007;-55
2024/04/17 09:57:22;;;;;;;6.95;2.80;;;26.70;99.90;;;;;;5381797;26;20008;-53
2024/04/17 09:59:49;;;;;;;6.18;3.63;;;26.60;99.90;;;;;;5381824;26;20332;-54
2024/04/17 10:02:16;;;;;;;3.78;3.05;;;26.70;99.90;;;;;;5381749;26;20309;-55
2024/04/17 10:04:45;;;;;;;4.80;3.03;;;26.70;99.90;;;;;;5381709;26;20007;-54
2024/04/17 10:07:15;;;;;;;5.50;2.70;;;26.70;99.90;;;;;;5381924;26;20346;-54
2024/04/17 10:09:41;;;;;;;6.57;3.30;;;26.70;99.90;;;;;;5381855;26;20004;-54
2024/04/17 10:12:12;;;;;;;5.13;2.88;;;26.70;99.90;;;;;;5382010;26;20000;-55
2024/04/17 10:14:39;;;;;;;4.07;3.00;;;26.70;99.90;;;;;;5381811;26;20074;-54
2024/04/17 10:17:06;;;;;;;7.50;3.08;;;26.70;99.90;;;;;;5381575;26;19996;-53
2024/04/17 10:19:33;;;;;;;6.75;2.63;;;26.80;99.90;;;;;;5381615;26;20011;-54
2024/04/17 10:21:59;;;;;;;5.20;3.33;;;26.70;99.90;;;;;;5382053;26;20004;-55
2024/04/17 10:24:25;;;;;;;6.28;3.50;;;26.70;99.90;;;;;;5381617;26;20402;-54
2024/04/17 10:26:54;;;;;;;4.90;3.22;;;26.70;99.90;;;;;;5381493;26;20070;-55
2024/04/17 10:29:24;;;;;;;5.30;3.00;;;26.80;99.90;;;;;;5381137;26;20000;-54
2024/04/17 10:31:58;;;;;;;5.25;3.22;;;26.80;99.90;;;;;;5379758;26;20010;-55
2024/04/17 10:34:25;;;;;;;3.53;2.63;;;26.80;99.90;;;;;;5381500;26;20437;-54
2024/04/17 10:37:01;;;;;;;4.55;3.00;;;26.80;99.90;;;;;;5381269;26;20015;-55
2024/04/17 10:39:28;;;;;;;4.80;3.08;;;26.80;99.90;;;;;;5381567;26;20445;-54
2024/04/17 10:41:54;;;;;;;5.72;3.13;;;26.80;99.90;;;;;;5381317;26;19996;-54
2024/04/17 10:44:20;;;;;;;8.73;3.33;;;26.90;99.90;;;;;;5381472;26;20429;-54
2024/04/17 10:46:47;;;;;;;6.80;3.08;;;26.90;99.90;;;;;;5381509;26;20040;-54
2024/04/17 10:49:18;;;;;;;5.13;3.50;;;26.80;99.90;;;;;;5381048;26;20007;-54
2024/04/17 10:51:44;;;;;;;6.75;3.22;;;26.90;99.90;;;;;;5381078;26;20000;-55
2024/04/17 10:54:13;;;;;;;3.92;3.25;;;26.90;99.90;;;;;;5381000;26;20008;-54
2024/04/17 10:56:40;;;;;;;4.82;3.13;;;26.90;99.90;;;;;;5379319;26;19996;-54
2024/04/17 10:59:06;;;;;;;6.25;3.72;;;26.90;99.90;;;;;;5381188;26;20008;-54
2024/04/17 11:01:32;;;;;;;6.03;3.25;;;26.90;99.90;;;;;;5380823;26;20012;-54
2024/04/17 11:03:58;;;;;;;6.32;3.78;;;26.90;99.90;;;;;;5381338;26;19997;-55
2024/04/17 11:06:24;;;;;;;5.28;2.97;;;26.90;99.90;;;;;;5381004;26;20010;-55
2024/04/17 11:08:52;;;;;;;5.38;3.20;;;26.90;99.90;;;;;;5379499;26;20000;-55
2024/04/17 11:11:18;;;;;;;4.57;3.00;;;27.00;99.90;;;;;;5381033;26;20004;-53
2024/04/17 11:13:44;;;;;;;7.47;4.53;;;27.00;99.90;;;;;;5380734;26;19996;-55
2024/04/17 11:16:10;;;;;;;5.22;3.42;;;27.00;99.90;;;;;;5380485;26;20007;-53
2024/04/17 11:18:37;;;;;;;5.78;3.10;;;27.00;99.90;;;;;;5380730;26;20084;-55
2024/04/17 11:21:03;;;;;;;5.40;3.40;;;27.00;99.90;;;;;;5380834;26;20000;-55
2024/04/17 11:23:40;;;;;;;4.32;3.05;;;27.00;99.90;;;;;;5381073;26;20012;-54
2024/04/17 11:26:06;;;;;;;5.88;3.22;;;27.00;99.90;;;;;;5380614;26;20393;-54
2024/04/17 11:28:32;;;;;;;4.88;3.20;;;27.00;99.90;;;;;;5380881;26;20024;-54
2024/04/17 11:30:59;;;;;;;4.97;2.83;;;27.00;99.90;;;;;;5380611;26;20001;-54
2024/04/17 11:33:27;;;;;;;6.25;3.35;;;27.10;99.90;;;;;;5380418;26;20405;-55
2024/04/17 11:36:09;;;;;;;6.30;3.60;;;27.10;99.90;;;;;;5380413;26;20000;-54
2024/04/17 11:38:35;;;;;;;5.90;3.15;;;27.10;99.90;;;;;;5378592;26;20137;-54
2024/04/17 11:41:02;;;;;;;4.85;3.70;;;27.10;99.90;;;;;;5380573;26;20410;-54
2024/04/17 11:43:27;;;;;;;6.18;3.22;;;27.10;99.90;;;;;;5380171;26;20015;-54
2024/04/17 11:45:53;;;;;;;5.25;3.20;;;27.10;99.90;;;;;;5380367;26;20458;-55
2024/04/17 11:48:19;;;;;;;6.88;3.67;;;27.10;99.90;;;;;;5380304;26;20012;-55
2024/04/17 11:50:45;;;;;;;6.88;2.97;;;27.10;99.90;;;;;;5378415;26;20070;-54
2024/04/17 11:53:11;;;;;;;6.97;3.42;;;27.10;99.90;;;;;;5380227;26;20447;-54
2024/04/17 11:55:37;;;;;;;5.70;3.60;;;27.10;99.90;;;;;;5380241;26;20011;-55
2024/04/17 11:58:04;;;;;;;5.47;3.28;;;27.10;99.90;;;;;;5380510;26;20445;-53
2024/04/17 12:00:31;;;;;;;4.80;3.60;;;27.20;99.90;;;;;;5380371;26;19996;-54
2024/04/17 12:02:57;;;;;;;6.22;3.53;;;27.20;99.90;;;;;;5380216;26;20099;-55
2024/04/17 12:05:23;;;;;;;4.72;3.33;;;27.10;99.90;;;;;;5379859;26;20000;-55
2024/04/17 12:07:50;;;;;;;4.53;3.65;;;27.20;99.90;;;;;;5379821;26;20000;-55
2024/04/17 12:10:17;;;;;;;5.93;4.10;;;27.20;99.90;;;;;;5379738;26;20332;-55
2024/04/17 12:12:43;;;;;;;6.90;3.60;;;27.20;99.90;;;;;;5379817;26;20332;-55
2024/04/17 12:15:09;;;;;;;6.43;3.97;;;27.20;99.90;;;;;;5379616;26;20007;-54
2024/04/17 12:17:35;;;;;;;6.32;3.60;;;27.20;99.90;;;;;;5379632;26;20007;-54
2024/04/17 12:20:01;;;;;;;6.40;3.67;;;27.20;99.90;;;;;;5381138;26;19999;-54
2024/04/17 12:22:27;;;;;;;5.15;3.45;;;27.20;99.90;;;;;;5383099;26;20118;-55
2024/04/17 12:27:37;;;;;;;5.60;3.95;;;27.30;99.90;;;;;;5383170;26;20459;-55
2024/04/17 12:30:03;;;;;;;5.53;3.92;;;27.30;99.90;;;;;;5383196;26;20000;-54
2024/04/17 12:32:29;;;;;;;5.90;3.33;;;27.30;99.90;;;;;;5383093;26;20014;-54
2024/04/17 12:34:54;;;;;;;9.52;4.30;;;27.30;99.90;;;;;;5383114;26;20333;-53
2024/04/17 12:37:20;;;;;;;4.70;3.47;;;27.30;99.90;;;;;;5382986;26;20011;-55
2024/04/17 12:39:46;;;;;;;6.75;3.83;;;27.30;99.90;;;;;;5382754;26;20015;-54
2024/04/17 12:42:12;;;;;;;6.43;3.50;;;27.30;99.90;;;;;;5382958;26;19996;-54
2024/04/17 12:44:39;;;;;;;4.80;3.40;;;27.30;99.90;;;;;;5383033;26;20522;-54